createdAt,value
2019-02-08T00:01:50.049Z,7.70
2019-02-08T00:04:19.403Z,7.72
2019-02-08T00:06:49.038Z,7.70
2019-02-08T00:09:18.614Z,7.70
2019-02-08T00:11:48.484Z,7.76
2019-02-08T00:14:18.156Z,7.67
2019-02-08T00:16:47.487Z,7.67
2019-02-08T00:19:18.143Z,7.70
2019-02-08T00:21:47.481Z,7.70
2019-02-08T00:24:17.141Z,7.66
2019-02-08T00:26:47.340Z,7.63
2019-02-08T00:29:16.962Z,7.63
2019-02-08T00:31:48.289Z,7.71
2019-02-08T00:34:17.630Z,7.74
2019-02-08T00:36:47.058Z,7.73
2019-02-08T00:39:16.396Z,7.73
2019-02-08T00:41:46.270Z,7.73
2019-02-08T00:44:15.598Z,7.79
2019-02-08T00:46:45.252Z,7.79
2019-02-08T00:49:14.587Z,7.78
2019-02-08T00:51:44.472Z,7.77
2019-02-08T00:54:14.111Z,7.76
2019-02-08T00:56:43.981Z,7.76
2019-02-08T00:59:13.321Z,7.72
2019-02-08T01:01:42.665Z,7.72
2019-02-08T01:04:12.249Z,7.71
2019-02-08T01:06:41.668Z,7.71
2019-02-08T01:09:11.218Z,7.69
2019-02-08T01:11:41.155Z,7.70
2019-02-08T01:14:10.830Z,7.72
2019-02-08T01:16:40.699Z,7.74
2019-02-08T01:19:10.025Z,7.76
2019-02-08T01:21:39.727Z,7.79
2019-02-08T01:24:15.263Z,7.82
2019-02-08T01:26:44.743Z,7.82
2019-02-08T01:29:14.076Z,7.85
2019-02-08T01:31:43.717Z,7.84
2019-02-08T01:34:13.344Z,7.86
2019-02-08T01:36:42.804Z,7.85
2019-02-08T01:39:12.534Z,7.86
2019-02-08T01:41:41.875Z,7.87
2019-02-08T01:44:11.202Z,7.87
2019-02-08T01:46:40.837Z,7.87
2019-02-08T01:49:10.741Z,7.86
2019-02-08T01:51:40.087Z,7.86
2019-02-08T01:54:09.554Z,7.84
2019-02-08T01:56:39.452Z,7.84
2019-02-08T01:59:08.769Z,7.80
2019-02-08T02:01:38.194Z,7.74
2019-02-08T02:04:09.258Z,7.74
2019-02-08T02:06:39.979Z,7.71
2019-02-08T02:09:09.647Z,7.63
2019-02-08T02:11:39.106Z,7.63
2019-02-08T02:14:08.697Z,7.56
2019-02-08T02:16:39.293Z,7.56
2019-02-08T02:19:08.685Z,7.41
2019-02-08T02:21:38.046Z,7.41
2019-02-08T02:24:07.595Z,7.41
2019-02-08T02:26:37.227Z,7.41
2019-02-08T02:29:06.976Z,7.45
2019-02-08T02:31:36.576Z,7.45
2019-02-08T02:34:05.966Z,7.48
2019-02-08T02:36:36.676Z,7.51
2019-02-08T02:39:07.941Z,7.51
2019-02-08T02:41:37.878Z,7.53
2019-02-08T02:44:07.466Z,7.55
2019-02-08T02:46:37.091Z,7.55
2019-02-08T02:49:06.709Z,7.55
2019-02-08T02:51:36.296Z,7.55
2019-02-08T02:54:05.697Z,7.56
2019-02-08T02:56:35.327Z,7.56
2019-02-08T02:59:05.782Z,7.63
2019-02-08T03:01:35.131Z,7.63
2019-02-08T03:04:05.137Z,7.63
2019-02-08T03:06:35.049Z,7.63
2019-02-08T03:09:07.486Z,7.58
2019-02-08T03:11:38.005Z,7.58
2019-02-08T03:14:07.336Z,7.60
2019-02-08T03:16:37.841Z,7.59
2019-02-08T03:19:07.236Z,7.59
2019-02-08T03:21:36.875Z,7.58
2019-02-08T03:24:12.881Z,7.61
2019-02-08T03:26:37.896Z,7.64
2019-02-08T03:29:07.221Z,7.61
2019-02-08T03:31:36.863Z,7.62
2019-02-08T03:34:06.193Z,7.64
2019-02-08T03:36:35.832Z,7.63
2019-02-08T03:39:07.078Z,7.61
2019-02-08T03:41:37.179Z,7.62
2019-02-08T03:44:07.426Z,7.61
2019-02-08T03:46:37.045Z,7.61
2019-02-08T03:49:06.488Z,7.57
2019-02-08T03:51:36.330Z,7.56
2019-02-08T03:54:06.135Z,7.49
2019-02-08T03:56:36.115Z,7.49
2019-02-08T03:59:05.527Z,7.42
2019-02-08T04:01:35.199Z,7.35
2019-02-08T04:04:15.041Z,7.32
2019-02-08T04:06:44.394Z,7.28
2019-02-08T04:09:14.164Z,7.23
2019-02-08T04:11:44.164Z,7.23
2019-02-08T04:14:13.496Z,7.22
2019-02-08T04:16:43.131Z,7.22
2019-02-08T04:19:12.701Z,7.23
2019-02-08T04:21:42.213Z,7.22
2019-02-08T04:24:12.073Z,7.21
2019-02-08T04:26:41.424Z,7.18
2019-02-08T04:29:11.079Z,7.21
2019-02-08T04:31:40.665Z,7.21
2019-02-08T04:34:11.762Z,7.26
2019-02-08T04:36:41.392Z,7.30
2019-02-08T04:39:11.167Z,7.33
2019-02-08T04:41:41.094Z,7.34
2019-02-08T04:44:10.434Z,7.34
2019-02-08T04:46:40.074Z,7.35
2019-02-08T04:49:09.413Z,7.34
2019-02-08T04:51:39.053Z,7.34
2019-02-08T04:54:08.375Z,7.34
2019-02-08T04:56:37.722Z,7.34
2019-02-08T04:59:07.751Z,7.36
2019-02-08T05:01:37.442Z,7.36
2019-02-08T05:04:07.327Z,7.37
2019-02-08T05:06:36.969Z,7.40
2019-02-08T05:09:08.010Z,7.40
2019-02-08T05:11:37.650Z,7.38
2019-02-08T05:14:07.258Z,7.45
2019-02-08T05:16:36.619Z,7.45
2019-02-08T05:19:06.026Z,7.46
2019-02-08T05:21:36.344Z,7.46
2019-02-08T05:24:05.985Z,7.44
2019-02-08T05:26:35.615Z,7.46
2019-02-08T05:29:05.216Z,7.49
2019-02-08T05:31:34.555Z,7.49
2019-02-08T05:34:04.409Z,7.49
2019-02-08T05:36:34.037Z,7.45
2019-02-08T05:39:05.028Z,7.45
2019-02-08T05:41:45.460Z,7.46
2019-02-08T05:44:15.175Z,7.48
2019-02-08T05:46:44.510Z,7.52
2019-02-08T05:49:14.176Z,7.51
2019-02-08T05:51:43.510Z,7.51
2019-02-08T05:54:13.363Z,7.55
2019-02-08T05:56:42.721Z,7.55
2019-02-08T05:59:12.565Z,7.56
2019-02-08T06:01:42.451Z,7.56
2019-02-08T06:04:12.403Z,7.61
2019-02-08T06:06:42.267Z,7.61
2019-02-08T06:09:11.614Z,7.61
2019-02-08T06:11:41.513Z,7.58
2019-02-08T06:14:11.596Z,7.59
2019-02-08T06:16:41.250Z,7.61
2019-02-08T06:19:10.839Z,7.63
2019-02-08T06:21:42.088Z,7.58
2019-02-08T06:24:11.526Z,7.59
2019-02-08T06:26:40.851Z,7.59
2019-02-08T06:29:10.365Z,7.54
2019-02-08T06:31:39.848Z,7.54
2019-02-08T06:34:09.198Z,7.51
2019-02-08T06:36:38.526Z,7.53
2019-02-08T06:39:08.578Z,7.48
2019-02-08T06:41:38.455Z,7.48
2019-02-08T06:44:07.871Z,7.45
2019-02-08T06:46:37.501Z,7.47
2019-02-08T06:49:07.281Z,7.44
2019-02-08T06:51:36.852Z,7.43
2019-02-08T06:54:06.306Z,7.42
2019-02-08T06:56:54.113Z,7.42
2019-02-08T06:59:25.093Z,7.41
2019-02-08T07:02:02.020Z,7.39
2019-02-08T07:04:35.914Z,7.36
2019-02-08T07:07:23.439Z,7.35
2019-02-08T07:10:06.624Z,7.35
2019-02-08T07:12:37.903Z,7.33
2019-02-08T07:15:17.254Z,7.30
2019-02-08T07:18:03.339Z,7.30
2019-02-08T07:20:36.967Z,7.32
2019-02-08T07:23:16.333Z,7.32
2019-02-08T07:26:02.556Z,7.33
2019-02-08T07:28:33.828Z,7.32
2019-02-08T07:31:05.071Z,7.33
2019-02-08T07:33:36.219Z,7.28
2019-02-08T07:36:07.373Z,7.24
2019-02-08T07:38:38.348Z,7.24
2019-02-08T07:41:10.110Z,7.26
2019-02-08T07:43:47.587Z,7.25
2019-02-08T07:46:24.481Z,7.21
2019-02-08T07:49:02.942Z,7.15
2019-02-08T07:51:50.959Z,7.10
2019-02-08T07:54:38.156Z,7.04
2019-02-08T07:57:11.827Z,7.04
2019-02-08T07:59:43.104Z,7.05
2019-02-08T08:02:32.439Z,7.04
2019-02-08T08:05:03.677Z,7.04
2019-02-08T08:07:40.621Z,7.05
2019-02-08T08:18:55.163Z,7.07
2019-02-08T08:21:32.963Z,7.06
2019-02-08T08:24:07.164Z,7.08
2019-02-08T08:26:41.544Z,7.08
2019-02-08T08:29:18.041Z,7.13
2019-02-08T08:31:52.795Z,7.19
2019-02-08T08:34:31.168Z,7.25
2019-02-08T08:37:18.750Z,7.28
2019-02-08T08:40:00.016Z,7.28
2019-02-08T08:42:52.592Z,7.30
2019-02-08T08:45:31.073Z,7.36
2019-02-08T08:48:12.573Z,7.40
2019-02-08T08:50:48.497Z,7.42
2019-02-08T08:53:35.168Z,7.42
2019-02-08T08:56:07.930Z,7.43
2019-02-08T08:59:13.853Z,7.43
2019-02-08T09:01:54.893Z,7.47
2019-02-08T09:04:36.200Z,7.45
2019-02-08T09:07:17.369Z,7.43
2019-02-08T09:10:13.095Z,7.43
2019-02-08T09:13:01.267Z,7.47
2019-02-08T09:15:45.738Z,7.49
2019-02-08T09:18:27.689Z,7.51
2019-02-08T09:21:16.743Z,7.50
2019-02-08T09:24:15.959Z,7.48
2019-02-08T09:26:54.476Z,7.47
2019-02-08T09:29:43.778Z,7.43
2019-02-08T09:32:21.971Z,7.43
2019-02-08T09:35:00.582Z,7.47
2019-02-08T09:37:47.535Z,7.50
2019-02-08T09:40:29.236Z,7.56
2019-02-08T09:43:20.182Z,7.66
2019-02-08T09:46:13.048Z,7.73
2019-02-08T09:49:03.603Z,7.73
2019-02-08T09:52:17.707Z,7.74
2019-02-08T09:55:09.866Z,7.77
2019-02-08T09:58:03.768Z,7.86
2019-02-08T10:00:55.579Z,7.95
2019-02-08T10:03:47.554Z,8.06
2019-02-08T10:06:28.598Z,8.26
2019-02-08T10:09:12.380Z,8.43
2019-02-08T10:11:50.904Z,8.53
2019-02-08T10:14:39.990Z,8.57
2019-02-08T10:17:18.262Z,8.57
2019-02-08T10:20:10.834Z,8.60
2019-02-08T10:23:01.774Z,8.60
2019-02-08T10:26:05.309Z,8.63
2019-02-08T10:29:06.794Z,8.69
2019-02-08T10:32:12.574Z,8.71
2019-02-08T10:34:54.146Z,8.75
2019-02-08T10:37:41.723Z,8.76
2019-02-08T10:40:31.012Z,8.75
2019-02-08T10:43:22.500Z,8.75
2019-02-08T10:46:30.110Z,8.77
2019-02-08T10:49:02.929Z,8.78
2019-02-08T10:51:41.361Z,8.81
2019-02-08T10:54:25.623Z,8.84
2019-02-08T10:57:03.810Z,8.86
2019-02-08T11:00:08.373Z,8.87
2019-02-08T11:03:02.493Z,8.91
2019-02-08T11:05:46.890Z,8.94
2019-02-08T11:08:19.389Z,8.90
2019-02-08T11:11:14.697Z,8.92
2019-02-08T11:13:56.235Z,8.93
2019-02-08T11:16:31.991Z,8.98
2019-02-08T11:19:20.187Z,8.95
2019-02-08T11:21:50.328Z,8.92
2019-02-08T11:24:21.375Z,8.93
2019-02-08T11:26:50.981Z,9.00
2019-02-08T11:29:20.330Z,9.10
2019-02-08T11:31:49.961Z,9.13
2019-02-08T11:34:19.562Z,9.17
2019-02-08T11:36:48.965Z,9.21
2019-02-08T11:39:18.731Z,9.23
2019-02-08T11:41:48.443Z,9.28
2019-02-08T11:44:19.594Z,9.32
2019-02-08T11:46:49.661Z,9.41
2019-02-08T11:49:19.051Z,9.41
2019-02-08T11:51:48.619Z,9.40
2019-02-08T11:54:18.167Z,9.41
2019-02-08T11:56:47.500Z,9.39
2019-02-08T11:59:17.139Z,9.36
2019-02-08T12:01:46.651Z,9.39
2019-02-08T12:04:16.254Z,9.45
2019-02-08T12:06:46.178Z,9.52
2019-02-08T12:09:15.541Z,9.57
2019-02-08T12:11:45.177Z,9.58
2019-02-08T12:14:14.520Z,9.63
2019-02-08T12:16:44.228Z,9.68
2019-02-08T12:19:13.562Z,9.73
2019-02-08T12:21:43.206Z,9.75
2019-02-08T12:24:12.779Z,9.75
2019-02-08T12:26:42.491Z,9.81
2019-02-08T12:29:12.110Z,9.84
2019-02-08T12:31:41.998Z,9.83
2019-02-08T12:34:11.335Z,9.88
2019-02-08T12:36:41.299Z,9.97
2019-02-08T12:39:10.970Z,10.05
2019-02-08T12:41:57.638Z,10.10
2019-02-08T12:44:27.220Z,10.14
2019-02-08T12:46:56.585Z,10.17
2019-02-08T12:49:26.110Z,10.14
2019-02-08T12:52:00.494Z,10.15
2019-02-08T12:54:30.181Z,10.15
2019-02-08T12:56:59.532Z,10.14
2019-02-08T12:59:29.564Z,10.14
2019-02-08T13:01:59.229Z,10.13
2019-02-08T13:04:29.566Z,10.11
2019-02-08T13:07:01.511Z,10.10
2019-02-08T13:09:31.570Z,10.10
2019-02-08T13:12:01.215Z,10.12
2019-02-08T13:14:30.558Z,10.18
2019-02-08T13:17:00.268Z,10.21
2019-02-08T13:19:29.656Z,10.23
2019-02-08T13:21:59.230Z,10.22
2019-02-08T13:24:29.675Z,10.23
2019-02-08T13:26:59.251Z,10.19
2019-02-08T13:29:29.559Z,10.17
2019-02-08T13:31:59.203Z,10.15
2019-02-08T13:34:29.635Z,10.07
2019-02-08T13:36:59.358Z,10.07
2019-02-08T13:39:28.730Z,10.13
2019-02-08T13:41:58.538Z,10.10
2019-02-08T13:44:29.306Z,10.10
2019-02-08T13:46:58.895Z,10.01
2019-02-08T13:49:29.632Z,9.99
2019-02-08T13:51:59.215Z,9.98
2019-02-08T13:54:29.803Z,9.99
2019-02-08T13:57:00.703Z,9.99
2019-02-08T13:59:30.819Z,9.98
2019-02-08T14:02:00.580Z,9.96
2019-02-08T14:04:31.109Z,9.93
2019-02-08T14:07:00.454Z,9.94
2019-02-08T14:09:29.835Z,9.98
2019-02-08T14:11:59.651Z,9.98
2019-02-08T14:14:29.697Z,10.01
2019-02-08T14:17:00.095Z,9.97
2019-02-08T14:19:31.649Z,10.00
2019-02-08T14:22:00.983Z,10.01
2019-02-08T14:24:30.735Z,10.04
2019-02-08T14:27:08.394Z,10.04
2019-02-08T14:29:32.791Z,9.99
2019-02-08T14:32:02.131Z,10.00
2019-02-08T14:34:32.027Z,10.00
2019-02-08T14:37:01.910Z,10.02
2019-02-08T14:39:31.561Z,10.02
2019-02-08T14:42:00.898Z,10.02
2019-02-08T14:44:30.717Z,10.02
2019-02-08T14:47:00.049Z,10.00
2019-02-08T14:49:30.045Z,10.01
2019-02-08T14:51:59.673Z,10.01
2019-02-08T14:54:30.135Z,9.99
2019-02-08T14:56:59.740Z,9.96
2019-02-08T14:59:30.399Z,9.96
2019-02-08T15:01:59.732Z,10.00
2019-02-08T15:04:30.121Z,9.96
2019-02-08T15:06:59.954Z,9.96
2019-02-08T15:09:30.615Z,9.96
2019-02-08T15:11:59.942Z,9.92
2019-02-08T15:14:30.060Z,9.94
2019-02-08T15:16:59.732Z,9.92
2019-02-08T15:19:30.294Z,9.92
2019-02-08T15:22:00.132Z,9.96
2019-02-08T15:24:30.203Z,10.01
2019-02-08T15:26:59.805Z,10.02
2019-02-08T15:29:30.401Z,9.97
2019-02-08T15:31:59.890Z,9.96
2019-02-08T15:34:30.448Z,9.98
2019-02-08T15:36:59.832Z,10.00
2019-02-08T15:39:30.186Z,9.97
2019-02-08T15:41:59.817Z,9.97
2019-02-08T15:44:30.377Z,9.95
2019-02-08T15:47:00.047Z,9.96
2019-02-08T15:49:30.183Z,9.95
2019-02-08T15:51:59.830Z,9.99
2019-02-08T15:54:30.159Z,10.01
2019-02-08T15:56:59.859Z,9.99
2019-02-08T15:59:30.213Z,9.97
2019-02-08T16:01:59.854Z,9.97
2019-02-08T16:04:30.323Z,9.97
2019-02-08T16:07:00.616Z,9.98
2019-02-08T16:09:30.279Z,9.92
2019-02-08T16:11:59.851Z,9.92
2019-02-08T16:14:30.975Z,9.91
2019-02-08T16:17:00.303Z,9.94
2019-02-08T16:19:30.386Z,9.95
2019-02-08T16:21:59.894Z,9.92
2019-02-08T16:24:30.169Z,9.96
2019-02-08T16:26:59.847Z,9.95
2019-02-08T16:29:30.895Z,9.96
2019-02-08T16:32:00.216Z,9.96
2019-02-08T16:34:30.331Z,9.95
2019-02-08T16:37:03.597Z,9.96
2019-02-08T16:39:31.270Z,9.96
2019-02-08T16:42:00.921Z,9.91
2019-02-08T16:44:31.783Z,9.91
2019-02-08T16:47:01.189Z,9.93
2019-02-08T16:49:30.836Z,9.89
2019-02-08T16:52:00.173Z,9.89
2019-02-08T16:54:30.500Z,9.89
2019-02-08T16:56:59.944Z,9.91
2019-02-08T16:59:30.363Z,9.93
2019-02-08T17:01:59.969Z,9.93
2019-02-08T17:04:30.423Z,9.94
2019-02-08T17:07:00.300Z,9.93
2019-02-08T17:09:30.430Z,9.93
2019-02-08T17:12:00.066Z,9.92
2019-02-08T17:14:30.473Z,9.92
2019-02-08T17:17:00.134Z,9.92
2019-02-08T17:19:30.513Z,9.92
2019-02-08T17:22:00.075Z,9.90
2019-02-08T17:24:30.462Z,9.92
2019-02-08T17:27:00.066Z,9.94
2019-02-08T17:29:30.369Z,9.94
2019-02-08T17:31:59.712Z,9.91
2019-02-08T17:34:30.715Z,9.90
2019-02-08T17:37:00.086Z,9.90
2019-02-08T17:39:30.492Z,9.89
2019-02-08T17:42:00.064Z,9.86
2019-02-08T17:44:30.800Z,9.85
2019-02-08T17:47:00.221Z,9.88
2019-02-08T17:49:30.627Z,9.84
2019-02-08T17:52:00.217Z,9.82
2019-02-08T17:54:30.450Z,9.83
2019-02-08T17:57:00.896Z,9.87
2019-02-08T17:59:31.498Z,9.86
2019-02-08T18:02:01.160Z,9.89
2019-02-08T18:04:30.608Z,9.85
2019-02-08T18:07:00.125Z,9.83
2019-02-08T18:09:31.452Z,9.79
2019-02-08T18:12:01.086Z,9.79
2019-02-08T18:14:30.666Z,9.77
2019-02-08T18:17:00.385Z,9.79
2019-02-08T18:19:30.977Z,9.76
2019-02-08T18:22:00.580Z,9.78
2019-02-08T18:24:30.511Z,9.77
2019-02-08T18:27:00.154Z,9.73
2019-02-08T18:29:30.559Z,9.78
2019-02-08T18:32:00.243Z,9.78
2019-02-08T18:34:31.244Z,9.77
2019-02-08T18:37:01.825Z,9.75
2019-02-08T18:39:31.512Z,9.74
2019-02-08T18:42:01.452Z,9.77
2019-02-08T18:44:31.759Z,9.79
2019-02-08T18:47:01.392Z,9.80
2019-02-08T18:49:30.719Z,9.82
2019-02-08T18:52:00.294Z,9.81
2019-02-08T18:54:30.588Z,9.84
2019-02-08T18:57:00.222Z,9.83
2019-02-08T18:59:31.540Z,9.81
2019-02-08T19:02:01.243Z,9.79
2019-02-08T19:04:30.759Z,9.79
2019-02-08T19:07:00.353Z,9.75
2019-02-08T19:09:30.581Z,9.77
2019-02-08T19:12:00.481Z,9.80
2019-02-08T19:14:30.687Z,9.80
2019-02-08T19:17:00.065Z,9.83
2019-02-08T19:19:30.713Z,9.86
2019-02-08T19:22:00.513Z,9.85
2019-02-08T19:24:29.839Z,9.84
2019-02-08T19:26:59.342Z,9.85
2019-02-08T19:29:28.677Z,9.84
2019-02-08T19:31:58.041Z,9.83
2019-02-08T19:34:27.455Z,9.84
2019-02-08T19:36:56.781Z,9.85
2019-02-08T19:39:26.488Z,9.87
2019-02-08T19:41:55.849Z,9.86
2019-02-08T19:44:25.443Z,9.85
2019-02-08T19:46:55.795Z,9.88
2019-02-08T19:49:26.609Z,9.91
2019-02-08T19:51:55.944Z,9.93
2019-02-08T19:54:25.361Z,9.91
2019-02-08T19:56:55.681Z,9.90
2019-02-08T19:59:25.047Z,9.92
2019-02-08T20:01:54.553Z,9.89
2019-02-08T20:04:24.113Z,9.92
2019-02-08T20:06:53.699Z,9.94
2019-02-08T20:09:23.396Z,9.97
2019-02-08T20:11:52.726Z,9.99
2019-02-08T20:14:22.256Z,9.94
2019-02-08T20:16:51.582Z,9.94
2019-02-08T20:19:20.976Z,9.94
2019-02-08T20:21:50.384Z,9.93
2019-02-08T20:24:19.748Z,9.92
2019-02-08T20:26:49.381Z,9.97
2019-02-08T20:29:18.718Z,9.97
2019-02-08T20:31:48.331Z,9.96
2019-02-08T20:34:17.662Z,9.97
2019-02-08T20:36:47.244Z,9.98
2019-02-08T20:39:16.610Z,9.95
2019-02-08T20:41:46.262Z,9.96
2019-02-08T20:44:15.853Z,9.96
2019-02-08T20:46:45.732Z,9.94
2019-02-08T20:49:16.619Z,9.94
2019-02-08T20:51:46.187Z,9.94
2019-02-08T20:54:15.586Z,9.93
2019-02-08T20:56:45.525Z,9.92
2019-02-08T20:59:14.892Z,9.94
2019-02-08T21:01:44.548Z,9.92
2019-02-08T21:04:13.917Z,9.95
2019-02-08T21:06:43.871Z,9.97
2019-02-08T21:09:13.880Z,9.97
2019-02-08T21:11:43.205Z,9.98
2019-02-08T21:14:12.828Z,9.97
2019-02-08T21:16:42.593Z,9.97
2019-02-08T21:19:12.179Z,10.00
2019-02-08T21:21:41.545Z,10.00
2019-02-08T21:24:11.013Z,10.02
2019-02-08T21:26:41.050Z,10.05
2019-02-08T21:29:10.753Z,10.04
2019-02-08T21:31:40.300Z,10.04
2019-02-08T21:34:09.823Z,10.08
2019-02-08T21:36:39.442Z,10.08
2019-02-08T21:39:09.477Z,10.08
2019-02-08T21:41:39.394Z,10.09
2019-02-08T21:44:09.130Z,10.09
2019-02-08T21:46:39.107Z,10.08
2019-02-08T21:49:08.842Z,10.07
2019-02-08T21:51:38.462Z,10.07
2019-02-08T21:54:08.004Z,10.09
2019-02-08T21:56:37.716Z,10.11
2019-02-08T21:59:07.385Z,10.11
2019-02-08T22:01:37.040Z,10.03
2019-02-08T22:04:06.494Z,10.03
2019-02-08T22:06:36.355Z,10.09
2019-02-08T22:09:07.520Z,10.12
2019-02-08T22:11:38.481Z,10.11
2019-02-08T22:14:08.121Z,10.12
2019-02-08T22:16:37.449Z,10.11
2019-02-08T22:19:07.074Z,10.08
2019-02-08T22:21:36.418Z,10.06
2019-02-08T22:24:06.349Z,10.04
2019-02-08T22:26:35.986Z,10.07
2019-02-08T22:29:05.326Z,10.06
2019-02-08T22:31:34.947Z,10.09
2019-02-08T22:34:04.569Z,10.12
2019-02-08T22:36:34.345Z,10.14
2019-02-08T22:39:06.535Z,10.16
2019-02-08T22:41:36.475Z,10.17
2019-02-08T22:44:06.061Z,10.15
2019-02-08T22:46:35.405Z,10.15
2019-02-08T22:49:05.157Z,10.09
2019-02-08T22:51:35.100Z,10.09
2019-02-08T22:54:04.427Z,10.11
2019-02-08T22:56:34.362Z,10.12
2019-02-08T22:59:04.076Z,10.15
2019-02-08T23:01:35.158Z,10.14
2019-02-08T23:04:09.437Z,10.13
2019-02-08T23:06:44.634Z,10.11
2019-02-08T23:09:18.805Z,10.12
2019-02-08T23:11:48.256Z,10.11
2019-02-08T23:14:17.593Z,10.13
2019-02-08T23:16:47.225Z,10.16
2019-02-08T23:19:16.603Z,10.14
2019-02-08T23:21:46.586Z,10.12
2019-02-08T23:24:16.219Z,10.10
2019-02-08T23:26:45.549Z,10.10
2019-02-08T23:29:15.186Z,10.05
2019-02-08T23:31:46.142Z,9.99
2019-02-08T23:34:15.479Z,9.98
2019-02-08T23:36:45.681Z,9.98
2019-02-08T23:39:15.365Z,9.94
2019-02-08T23:41:44.716Z,9.91
2019-02-08T23:44:14.311Z,9.87
2019-02-08T23:46:45.551Z,9.82
2019-02-08T23:49:15.420Z,9.75
2019-02-08T23:51:45.533Z,9.69
2019-02-08T23:54:15.137Z,9.58
2019-02-08T23:56:44.657Z,9.48
2019-02-08T23:59:14.213Z,9.41
